createdAt,value
2018-09-21T00:02:41.424Z,10.63
2018-09-21T00:06:44.957Z,10.55
2018-09-21T00:10:48.417Z,9.30
2018-09-21T00:14:51.979Z,9.43
2018-09-21T00:18:55.629Z,9.35
2018-09-21T00:22:59.066Z,9.25
2018-09-21T00:27:02.578Z,9.07
2018-09-21T00:31:06.668Z,9.33
2018-09-21T00:35:10.191Z,9.23
2018-09-21T00:39:13.685Z,8.48
2018-09-21T00:43:17.430Z,9.08
2018-09-21T00:47:20.862Z,9.00
2018-09-21T00:51:25.670Z,9.78
2018-09-21T00:55:29.130Z,8.68
2018-09-21T00:59:32.621Z,10.35
2018-09-21T01:03:36.100Z,10.18
2018-09-21T01:07:39.692Z,9.90
2018-09-21T01:11:43.291Z,10.15
2018-09-21T01:15:46.833Z,9.73
2018-09-21T01:19:50.548Z,10.08
2018-09-21T01:23:54.143Z,9.48
2018-09-21T01:27:57.651Z,10.30
2018-09-21T01:32:01.379Z,10.40
2018-09-21T01:36:04.842Z,10.50
2018-09-21T01:40:08.797Z,10.38
2018-09-21T01:44:12.353Z,9.85
2018-09-21T01:48:15.855Z,9.55
2018-09-21T01:52:19.438Z,9.87
2018-09-21T01:56:22.919Z,11.18
2018-09-21T02:00:26.397Z,10.23
2018-09-21T02:04:35.178Z,9.85
2018-09-21T02:08:38.694Z,9.97
2018-09-21T02:12:42.454Z,10.17
2018-09-21T02:16:46.119Z,10.80
2018-09-21T02:20:49.703Z,9.93
2018-09-21T02:24:53.195Z,12.10
2018-09-21T02:28:56.701Z,11.30
2018-09-21T02:33:00.178Z,10.37
2018-09-21T02:37:03.666Z,9.97
2018-09-21T02:41:08.013Z,10.47
2018-09-21T02:45:11.522Z,10.23
2018-09-21T02:49:14.956Z,9.70
2018-09-21T02:53:18.540Z,9.70
2018-09-21T02:57:22.037Z,10.60
2018-09-21T03:01:25.546Z,9.70
2018-09-21T03:05:29.443Z,10.73
2018-09-21T03:09:32.926Z,10.70
2018-09-21T03:13:36.502Z,10.80
2018-09-21T03:17:39.978Z,11.20
2018-09-21T03:21:43.598Z,10.47
2018-09-21T03:25:47.213Z,10.10
2018-09-21T03:29:50.743Z,10.80
2018-09-21T03:33:54.317Z,9.83
2018-09-21T03:37:57.792Z,11.07
2018-09-21T03:42:01.649Z,9.33
2018-09-21T03:46:05.152Z,10.47
2018-09-21T03:50:08.778Z,10.70
2018-09-21T03:54:12.353Z,12.00
2018-09-21T03:58:15.841Z,11.03
2018-09-21T04:02:19.462Z,12.73
2018-09-21T04:06:23.106Z,12.43
2018-09-21T04:10:26.622Z,13.07
2018-09-21T04:14:30.091Z,12.10
2018-09-21T04:18:33.554Z,12.70
2018-09-21T04:22:37.173Z,12.10
2018-09-21T04:26:40.651Z,11.90
2018-09-21T04:30:44.263Z,11.10
2018-09-21T04:34:47.786Z,11.70
2018-09-21T04:38:51.326Z,11.53
2018-09-21T04:42:54.815Z,11.93
2018-09-21T04:46:58.399Z,11.17
2018-09-21T04:51:01.960Z,12.07
2018-09-21T04:55:05.414Z,12.53
2018-09-21T04:59:09.362Z,11.70
2018-09-21T05:03:12.886Z,12.07
2018-09-21T05:07:16.349Z,12.30
2018-09-21T05:11:19.922Z,12.03
2018-09-21T05:15:23.491Z,11.10
2018-09-21T05:19:27.102Z,10.40
2018-09-21T05:23:30.726Z,12.13
2018-09-21T05:27:34.142Z,12.87
2018-09-21T05:31:37.652Z,12.27
2018-09-21T05:35:42.233Z,10.97
2018-09-21T05:39:45.793Z,11.87
2018-09-21T05:43:50.302Z,11.90
2018-09-21T05:47:53.829Z,12.23
2018-09-21T05:51:57.356Z,13.10
2018-09-21T05:56:00.932Z,12.20
2018-09-21T06:00:04.462Z,12.87
2018-09-21T06:04:08.285Z,12.30
2018-09-21T06:08:11.798Z,12.53
2018-09-21T06:12:15.281Z,11.93
2018-09-21T06:16:19.220Z,11.07
2018-09-21T06:20:22.678Z,11.00
2018-09-21T06:24:26.349Z,11.27
2018-09-21T06:28:29.929Z,11.50
2018-09-21T06:32:33.398Z,11.70
2018-09-21T06:36:36.847Z,12.30
2018-09-21T06:40:40.372Z,11.87
2018-09-21T06:44:43.950Z,11.13
2018-09-21T06:48:47.450Z,10.67
2018-09-21T06:52:50.903Z,11.57
2018-09-21T06:56:54.486Z,10.93
2018-09-21T07:00:58.089Z,11.33
2018-09-21T07:05:06.838Z,11.43
2018-09-21T07:09:13.334Z,11.63
2018-09-21T07:13:16.980Z,11.25
2018-09-21T07:17:20.507Z,11.37
2018-09-21T07:21:24.334Z,11.63
2018-09-21T07:25:27.989Z,9.93
2018-09-21T07:29:31.414Z,10.60
2018-09-21T07:33:35.017Z,10.70
2018-09-21T07:37:38.710Z,10.28
2018-09-21T07:41:42.119Z,9.63
2018-09-21T07:45:45.606Z,9.58
2018-09-21T07:49:49.219Z,10.00
2018-09-21T07:53:52.813Z,9.35
2018-09-21T07:57:56.347Z,10.05
2018-09-21T08:02:00.434Z,9.83
2018-09-21T08:06:03.937Z,9.35
2018-09-21T08:10:07.823Z,8.90
2018-09-21T08:14:11.416Z,8.68
2018-09-21T08:18:14.909Z,9.23
2018-09-21T08:22:18.424Z,8.50
2018-09-21T08:26:21.940Z,8.70
2018-09-21T08:30:25.647Z,8.80
2018-09-21T08:34:29.109Z,8.78
2018-09-21T08:38:32.617Z,7.75
2018-09-21T08:42:36.396Z,7.85
2018-09-21T08:46:40.539Z,7.80
2018-09-21T08:50:44.008Z,7.42
2018-09-21T08:54:47.490Z,7.35
2018-09-21T08:58:51.512Z,7.87
2018-09-21T09:02:55.037Z,7.97
2018-09-21T09:06:58.551Z,7.17
2018-09-21T09:11:02.098Z,6.90
2018-09-21T09:15:05.580Z,7.53
2018-09-21T09:19:09.448Z,7.08
2018-09-21T09:23:13.166Z,6.72
2018-09-21T09:27:16.740Z,8.28
2018-09-21T09:31:21.302Z,7.35
2018-09-21T09:35:24.784Z,7.10
2018-09-21T09:39:28.291Z,6.97
2018-09-21T09:43:31.914Z,6.92
2018-09-21T09:47:35.612Z,6.47
2018-09-21T09:51:39.076Z,7.50
2018-09-21T09:55:42.562Z,6.83
2018-09-21T09:59:46.094Z,6.78
2018-09-21T10:03:49.600Z,6.15
2018-09-21T10:07:53.100Z,7.15
2018-09-21T10:11:56.628Z,6.12
2018-09-21T10:16:00.076Z,6.62
2018-09-21T10:20:03.643Z,6.87
2018-09-21T10:24:07.268Z,6.03
2018-09-21T10:28:10.856Z,6.40
2018-09-21T10:32:14.310Z,6.28
2018-09-21T10:36:17.845Z,5.92
2018-09-21T10:40:21.278Z,5.47
2018-09-21T10:44:24.866Z,5.80
2018-09-21T10:48:28.513Z,5.40
2018-09-21T10:52:32.197Z,5.90
2018-09-21T10:56:35.747Z,5.50
2018-09-21T11:00:39.505Z,5.97
2018-09-21T11:04:42.983Z,5.60
2018-09-21T11:08:46.454Z,5.55
2018-09-21T11:12:50.005Z,5.60
2018-09-21T11:16:53.535Z,5.53
2018-09-21T11:20:57.043Z,5.12
2018-09-21T11:25:00.523Z,5.70
2018-09-21T11:29:04.211Z,5.70
2018-09-21T11:33:08.391Z,5.75
2018-09-21T11:37:12.181Z,5.62
2018-09-21T11:41:15.711Z,5.42
2018-09-21T11:45:19.210Z,5.85
2018-09-21T11:49:22.753Z,5.55
2018-09-21T11:53:26.273Z,5.40
2018-09-21T11:57:29.939Z,5.20
2018-09-21T12:01:33.426Z,5.05
2018-09-21T12:05:37.033Z,5.40
2018-09-21T12:09:40.473Z,4.75
2018-09-21T12:13:44.014Z,5.10
2018-09-21T12:17:47.501Z,4.62
2018-09-21T12:21:51.151Z,4.47
2018-09-21T12:25:54.694Z,4.72
2018-09-21T12:29:58.184Z,5.10
2018-09-21T12:34:01.803Z,5.20
2018-09-21T12:38:05.395Z,5.00
2018-09-21T12:42:08.910Z,4.97
2018-09-21T12:46:17.182Z,4.85
2018-09-21T12:50:20.839Z,5.08
2018-09-21T12:54:24.337Z,5.12
2018-09-21T12:58:28.389Z,4.70
2018-09-21T13:02:31.801Z,5.12
2018-09-21T13:06:35.544Z,5.08
2018-09-21T13:10:39.138Z,5.20
2018-09-21T13:14:42.570Z,4.62
2018-09-21T13:18:46.794Z,4.97
2018-09-21T13:22:50.553Z,4.58
2018-09-21T13:26:54.173Z,4.87
2018-09-21T13:30:57.651Z,4.78
2018-09-21T13:35:01.615Z,4.87
2018-09-21T13:39:08.162Z,5.35
2018-09-21T13:43:12.832Z,5.00
2018-09-21T13:47:16.423Z,4.80
2018-09-21T13:51:20.454Z,4.80
2018-09-21T13:55:23.896Z,4.78
2018-09-21T13:59:27.574Z,4.83
2018-09-21T14:03:31.254Z,4.95
2018-09-21T14:07:34.733Z,4.80
2018-09-21T14:11:38.306Z,5.00
2018-09-21T14:15:42.042Z,4.40
2018-09-21T14:19:45.568Z,4.83
2018-09-21T14:23:49.174Z,4.78
2018-09-21T14:27:52.867Z,4.97
2018-09-21T14:31:56.335Z,4.58
2018-09-21T14:35:59.938Z,4.70
2018-09-21T14:40:03.816Z,4.22
2018-09-21T14:44:07.560Z,4.42
2018-09-21T14:48:11.051Z,4.70
2018-09-21T14:52:14.481Z,4.20
2018-09-21T14:56:17.982Z,4.65
2018-09-21T15:00:21.848Z,4.47
2018-09-21T15:04:25.391Z,4.50
2018-09-21T15:08:29.012Z,4.45
2018-09-21T15:12:33.922Z,4.40
2018-09-21T15:16:37.893Z,4.22
2018-09-21T15:20:41.274Z,4.50
2018-09-21T15:24:44.857Z,4.90
2018-09-21T15:28:48.780Z,4.85
2018-09-21T15:32:52.529Z,4.33
2018-09-21T15:36:56.079Z,5.12
2018-09-21T15:40:59.615Z,4.60
2018-09-21T15:45:03.331Z,5.03
2018-09-21T15:49:07.456Z,4.45
2018-09-21T15:53:11.057Z,5.00
2018-09-21T15:57:14.531Z,4.80
2018-09-21T16:01:18.027Z,5.37
2018-09-21T16:05:21.533Z,5.05
2018-09-21T16:09:25.142Z,4.45
2018-09-21T16:13:28.590Z,5.15
2018-09-21T16:17:33.298Z,5.40
2018-09-21T16:21:36.795Z,4.80
2018-09-21T16:25:40.372Z,5.12
2018-09-21T16:29:43.975Z,5.37
2018-09-21T16:33:47.552Z,5.45
2018-09-21T16:37:51.428Z,5.20
2018-09-21T16:41:55.078Z,6.10
2018-09-21T16:45:58.898Z,5.55
2018-09-21T16:50:02.374Z,5.50
2018-09-21T16:54:05.979Z,5.92
2018-09-21T16:58:10.598Z,5.95
2018-09-21T17:02:14.394Z,5.90
2018-09-21T17:06:19.018Z,5.50
2018-09-21T17:10:22.463Z,5.35
2018-09-21T17:14:26.696Z,6.15
2018-09-21T17:18:30.133Z,6.00
2018-09-21T17:22:33.818Z,5.40
2018-09-21T17:26:37.369Z,6.30
2018-09-21T17:30:42.100Z,6.20
2018-09-21T17:34:45.694Z,6.25
2018-09-21T17:38:49.234Z,6.08
2018-09-21T17:42:53.718Z,6.20
2018-09-21T17:46:57.330Z,6.15
2018-09-21T17:51:01.286Z,6.55
2018-09-21T17:55:04.766Z,5.85
2018-09-21T17:59:08.659Z,6.35
2018-09-21T18:03:12.360Z,6.80
2018-09-21T18:07:21.065Z,6.37
2018-09-21T18:11:24.570Z,6.25
2018-09-21T18:15:28.050Z,6.45
2018-09-21T18:19:31.615Z,6.35
2018-09-21T18:23:35.396Z,6.62
2018-09-21T18:27:38.963Z,6.33
2018-09-21T18:31:42.450Z,6.72
2018-09-21T18:35:45.969Z,5.97
2018-09-21T18:39:49.518Z,5.92
2018-09-21T18:43:52.986Z,6.33
2018-09-21T18:47:56.937Z,6.28
2018-09-21T18:52:00.526Z,6.08
2018-09-21T18:56:04.012Z,7.35
2018-09-21T19:00:08.189Z,6.28
2018-09-21T19:04:11.829Z,6.87
2018-09-21T19:08:15.682Z,6.17
2018-09-21T19:12:20.161Z,6.60
2018-09-21T19:16:23.864Z,6.30
2018-09-21T19:20:27.344Z,6.58
2018-09-21T19:24:30.877Z,6.95
2018-09-21T19:28:34.501Z,6.53
2018-09-21T19:32:37.959Z,6.50
2018-09-21T19:36:41.439Z,5.97
2018-09-21T19:40:45.177Z,6.55
2018-09-21T19:44:48.881Z,6.90
2018-09-21T19:48:53.010Z,6.10
2018-09-21T19:52:56.689Z,6.65
2018-09-21T19:57:00.174Z,6.95
2018-09-21T20:01:04.089Z,6.97
2018-09-21T20:05:07.697Z,6.85
2018-09-21T20:09:12.596Z,7.10
2018-09-21T20:13:16.411Z,7.12
2018-09-21T20:17:20.580Z,7.05
2018-09-21T20:21:24.178Z,6.75
2018-09-21T20:25:27.895Z,7.37
2018-09-21T20:29:31.539Z,7.12
2018-09-21T20:33:35.846Z,7.20
2018-09-21T20:37:39.593Z,7.33
2018-09-21T20:41:43.075Z,7.58
2018-09-21T20:45:47.578Z,6.62
2018-09-21T20:49:52.066Z,7.33
2018-09-21T20:53:55.599Z,7.17
2018-09-21T20:57:59.306Z,7.05
2018-09-21T21:02:03.227Z,8.03
2018-09-21T21:06:06.804Z,8.40
2018-09-21T21:10:10.285Z,8.03
2018-09-21T21:14:13.846Z,8.00
2018-09-21T21:18:18.497Z,8.05
2018-09-21T21:22:22.482Z,7.87
2018-09-21T21:26:26.105Z,7.90
2018-09-21T21:30:29.834Z,8.08
2018-09-21T21:34:33.354Z,8.18
2018-09-21T21:38:37.106Z,7.95
2018-09-21T21:42:40.592Z,7.55
2018-09-21T21:46:44.051Z,8.08
2018-09-21T21:50:47.553Z,8.20
2018-09-21T21:54:51.086Z,7.97
2018-09-21T21:58:54.636Z,8.80
2018-09-21T22:02:58.181Z,8.50
2018-09-21T22:07:01.742Z,7.12
2018-09-21T22:11:09.681Z,5.87
2018-09-21T22:15:15.633Z,4.25
2018-09-21T22:19:19.033Z,3.85
2018-09-21T22:23:22.636Z,3.50
2018-09-21T22:27:26.177Z,3.25
2018-09-21T22:31:30.073Z,3.30
2018-09-21T22:35:33.663Z,3.15
2018-09-21T22:39:37.194Z,3.20
2018-09-21T22:43:40.776Z,3.37
2018-09-21T22:47:44.205Z,3.10
2018-09-21T22:51:47.678Z,3.30
2018-09-21T22:55:51.181Z,3.60
2018-09-21T22:59:54.736Z,2.87
2018-09-21T23:03:58.285Z,2.90
2018-09-21T23:08:01.735Z,2.67
2018-09-21T23:12:05.197Z,3.15
2018-09-21T23:16:08.686Z,2.90
2018-09-21T23:20:12.295Z,2.65
2018-09-21T23:24:15.834Z,2.98
2018-09-21T23:28:19.348Z,2.80
2018-09-21T23:32:22.970Z,2.50
2018-09-21T23:36:26.489Z,3.10
2018-09-21T23:40:29.981Z,2.50
2018-09-21T23:44:33.425Z,2.90
2018-09-21T23:48:37.052Z,2.65
2018-09-21T23:52:40.526Z,3.22
2018-09-21T23:56:44.232Z,2.90
